sensor_id;sensor_type;location;lat;lon;timestamp;pressure;altitude;pressure_sealevel;temperature;humidity
77778;BME280;66966;-34.746;138.604;2023-04-06T00:01:24;100735.20;;;22.64;37.15
77778;BME280;66966;-34.746;138.604;2023-04-06T00:03:50;100732.94;;;22.87;37.36
77778;BME280;66966;-34.746;138.604;2023-04-06T00:06:15;100729.86;;;22.82;36.77
77778;BME280;66966;-34.746;138.604;2023-04-06T00:08:40;100719.15;;;23.21;36.42
77778;BME280;66966;-34.746;138.604;2023-04-06T00:11:06;100717.67;;;22.85;35.94
77778;BME280;66966;-34.746;138.604;2023-04-06T00:13:31;100716.61;;;22.98;35.66
77778;BME280;66966;-34.746;138.604;2023-04-06T00:15:57;100703.50;;;23.31;35.29
77778;BME280;66966;-34.746;138.604;2023-04-06T00:18:23;100698.38;;;23.23;35.26
77778;BME280;66966;-34.746;138.604;2023-04-06T00:20:47;100695.52;;;23.60;34.44
77778;BME280;66966;-34.746;138.604;2023-04-06T00:23:13;100689.84;;;23.49;32.63
77778;BME280;66966;-34.746;138.604;2023-04-06T00:25:38;100687.42;;;23.56;31.62
77778;BME280;66966;-34.746;138.604;2023-04-06T00:28:04;100675.21;;;23.47;31.23
77778;BME280;66966;-34.746;138.604;2023-04-06T00:30:29;100657.73;;;23.81;30.58
77778;BME280;66966;-34.746;138.604;2023-04-06T00:32:54;100656.46;;;23.88;29.55
77778;BME280;66966;-34.746;138.604;2023-04-06T00:35:19;100664.16;;;23.61;29.42
77778;BME280;66966;-34.746;138.604;2023-04-06T00:37:47;100659.58;;;23.93;29.48
77778;BME280;66966;-34.746;138.604;2023-04-06T00:40:11;100638.60;;;23.73;29.48
77778;BME280;66966;-34.746;138.604;2023-04-06T00:42:35;100629.56;;;23.99;28.32
77778;BME280;66966;-34.746;138.604;2023-04-06T00:45:01;100642.97;;;23.44;27.67
77778;BME280;66966;-34.746;138.604;2023-04-06T00:47:26;100655.48;;;23.54;28.07
77778;BME280;66966;-34.746;138.604;2023-04-06T00:49:52;100661.23;;;23.89;28.57
77778;BME280;66966;-34.746;138.604;2023-04-06T00:52:18;100661.25;;;23.89;29.39
77778;BME280;66966;-34.746;138.604;2023-04-06T00:54:42;100659.50;;;23.97;28.89
77778;BME280;66966;-34.746;138.604;2023-04-06T00:57:07;100654.74;;;24.34;28.37
77778;BME280;66966;-34.746;138.604;2023-04-06T00:59:32;100644.55;;;24.29;27.96
77778;BME280;66966;-34.746;138.604;2023-04-06T01:01:58;100634.66;;;24.78;28.22
77778;BME280;66966;-34.746;138.604;2023-04-06T01:04:24;100639.31;;;24.81;28.83
77778;BME280;66966;-34.746;138.604;2023-04-06T01:06:48;100643.70;;;24.93;28.18
77778;BME280;66966;-34.746;138.604;2023-04-06T01:09:14;100643.85;;;24.82;27.95
77778;BME280;66966;-34.746;138.604;2023-04-06T01:11:39;100642.36;;;24.90;28.82
77778;BME280;66966;-34.746;138.604;2023-04-06T01:14:04;100646.63;;;24.77;29.46
77778;BME280;66966;-34.746;138.604;2023-04-06T01:16:30;100641.51;;;24.29;29.84
77778;BME280;66966;-34.746;138.604;2023-04-06T01:18:55;100643.74;;;24.48;29.29
77778;BME280;66966;-34.746;138.604;2023-04-06T01:21:20;100633.25;;;24.31;30.00
77778;BME280;66966;-34.746;138.604;2023-04-06T01:23:46;100631.36;;;23.92;30.32
77778;BME280;66966;-34.746;138.604;2023-04-06T01:26:11;100628.58;;;24.19;30.36
77778;BME280;66966;-34.746;138.604;2023-04-06T01:28:36;100629.88;;;24.12;30.49
77778;BME280;66966;-34.746;138.604;2023-04-06T01:31:01;100622.15;;;24.22;30.71
77778;BME280;66966;-34.746;138.604;2023-04-06T01:33:27;100610.13;;;24.23;30.96
77778;BME280;66966;-34.746;138.604;2023-04-06T01:35:52;100607.72;;;24.52;30.58
77778;BME280;66966;-34.746;138.604;2023-04-06T01:38:17;100603.21;;;24.84;30.56
77778;BME280;66966;-34.746;138.604;2023-04-06T01:40:43;100597.93;;;25.04;31.19
77778;BME280;66966;-34.746;138.604;2023-04-06T01:43:08;100593.26;;;24.94;30.62
77778;BME280;66966;-34.746;138.604;2023-04-06T01:45:33;100585.84;;;25.65;30.90
77778;BME280;66966;-34.746;138.604;2023-04-06T01:47:59;100580.14;;;25.38;30.00
77778;BME280;66966;-34.746;138.604;2023-04-06T01:50:24;100578.94;;;25.85;29.17
77778;BME280;66966;-34.746;138.604;2023-04-06T01:52:50;100576.62;;;25.77;29.17
77778;BME280;66966;-34.746;138.604;2023-04-06T01:55:14;100575.62;;;25.51;29.02
77778;BME280;66966;-34.746;138.604;2023-04-06T01:57:40;100575.41;;;25.61;29.62
77778;BME280;66966;-34.746;138.604;2023-04-06T02:00:06;100578.05;;;25.60;28.79
77778;BME280;66966;-34.746;138.604;2023-04-06T02:02:30;100571.74;;;25.36;28.38
77778;BME280;66966;-34.746;138.604;2023-04-06T02:04:56;100567.81;;;26.05;29.13
77778;BME280;66966;-34.746;138.604;2023-04-06T02:07:21;100562.45;;;25.97;28.09
77778;BME280;66966;-34.746;138.604;2023-04-06T02:09:46;100562.46;;;25.98;27.43
77778;BME280;66966;-34.746;138.604;2023-04-06T02:12:11;100553.36;;;26.05;28.24
77778;BME280;66966;-34.746;138.604;2023-04-06T02:14:37;100548.14;;;26.35;28.50
77778;BME280;66966;-34.746;138.604;2023-04-06T02:17:02;100552.16;;;26.72;27.09
77778;BME280;66966;-34.746;138.604;2023-04-06T02:19:27;100547.23;;;26.33;27.29
77778;BME280;66966;-34.746;138.604;2023-04-06T02:21:52;100540.55;;;26.43;28.31
77778;BME280;66966;-34.746;138.604;2023-04-06T02:24:18;100538.02;;;26.28;28.96
77778;BME280;66966;-34.746;138.604;2023-04-06T02:26:43;100539.25;;;26.38;29.69
77778;BME280;66966;-34.746;138.604;2023-04-06T02:29:09;100529.97;;;26.03;30.41
77778;BME280;66966;-34.746;138.604;2023-04-06T02:31:34;100528.00;;;25.92;30.48
77778;BME280;66966;-34.746;138.604;2023-04-06T02:33:59;100528.38;;;25.90;30.93
77778;BME280;66966;-34.746;138.604;2023-04-06T02:36:24;100527.71;;;25.63;31.27
77778;BME280;66966;-34.746;138.604;2023-04-06T02:38:49;100522.00;;;25.22;31.26
77778;BME280;66966;-34.746;138.604;2023-04-06T02:41:15;100522.42;;;25.17;31.94
77778;BME280;66966;-34.746;138.604;2023-04-06T02:43:40;100521.11;;;25.50;32.56
77778;BME280;66966;-34.746;138.604;2023-04-06T02:46:05;100517.19;;;25.22;33.43
77778;BME280;66966;-34.746;138.604;2023-04-06T02:48:30;100518.63;;;25.36;33.68
77778;BME280;66966;-34.746;138.604;2023-04-06T02:50:56;100527.46;;;25.35;33.78
77778;BME280;66966;-34.746;138.604;2023-04-06T02:53:21;100524.67;;;25.13;33.48
77778;BME280;66966;-34.746;138.604;2023-04-06T02:55:46;100516.25;;;24.99;33.64
77778;BME280;66966;-34.746;138.604;2023-04-06T02:58:11;100518.29;;;24.96;33.96
77778;BME280;66966;-34.746;138.604;2023-04-06T03:00:38;100511.79;;;24.73;34.29
77778;BME280;66966;-34.746;138.604;2023-04-06T03:03:02;100503.80;;;25.21;34.28
77778;BME280;66966;-34.746;138.604;2023-04-06T03:05:28;100496.92;;;24.98;34.00
77778;BME280;66966;-34.746;138.604;2023-04-06T03:07:53;100498.24;;;25.46;33.39
77778;BME280;66966;-34.746;138.604;2023-04-06T03:10:18;100494.37;;;25.57;33.26
77778;BME280;66966;-34.746;138.604;2023-04-06T03:12:43;100494.40;;;25.33;33.31
77778;BME280;66966;-34.746;138.604;2023-04-06T03:15:10;100492.29;;;25.38;33.43
77778;BME280;66966;-34.746;138.604;2023-04-06T03:17:34;100489.22;;;25.70;32.72
77778;BME280;66966;-34.746;138.604;2023-04-06T03:19:59;100484.81;;;25.44;33.45
77778;BME280;66966;-34.746;138.604;2023-04-06T03:22:24;100480.31;;;25.44;33.36
77778;BME280;66966;-34.746;138.604;2023-04-06T03:24:50;100480.54;;;25.55;33.69
77778;BME280;66966;-34.746;138.604;2023-04-06T03:27:15;100477.90;;;25.37;33.55
77778;BME280;66966;-34.746;138.604;2023-04-06T03:29:40;100472.04;;;25.57;33.56
77778;BME280;66966;-34.746;138.604;2023-04-06T03:32:05;100464.87;;;25.34;33.72
77778;BME280;66966;-34.746;138.604;2023-04-06T03:34:31;100458.62;;;25.36;33.77
77778;BME280;66966;-34.746;138.604;2023-04-06T03:36:56;100457.91;;;25.59;34.31
77778;BME280;66966;-34.746;138.604;2023-04-06T03:39:21;100451.34;;;25.38;34.84
77778;BME280;66966;-34.746;138.604;2023-04-06T03:41:47;100448.29;;;25.26;34.91
77778;BME280;66966;-34.746;138.604;2023-04-06T03:44:12;100443.16;;;25.12;34.79
77778;BME280;66966;-34.746;138.604;2023-04-06T03:46:37;100441.19;;;25.43;34.71
77778;BME280;66966;-34.746;138.604;2023-04-06T03:49:02;100435.76;;;25.17;34.70
77778;BME280;66966;-34.746;138.604;2023-04-06T03:51:28;100426.79;;;25.01;34.42
77778;BME280;66966;-34.746;138.604;2023-04-06T03:53:53;100421.05;;;25.37;34.22
77778;BME280;66966;-34.746;138.604;2023-04-06T03:56:18;100414.13;;;25.23;33.97
77778;BME280;66966;-34.746;138.604;2023-04-06T03:58:43;100409.70;;;25.36;33.60
77778;BME280;66966;-34.746;138.604;2023-04-06T04:01:09;100401.36;;;25.29;33.87
77778;BME280;66966;-34.746;138.604;2023-04-06T04:03:34;100397.80;;;25.56;33.75
77778;BME280;66966;-34.746;138.604;2023-04-06T04:06:00;100392.05;;;25.86;33.42
77778;BME280;66966;-34.746;138.604;2023-04-06T04:08:25;100389.02;;;25.49;33.59
77778;BME280;66966;-34.746;138.604;2023-04-06T04:10:50;100387.46;;;25.86;33.38
77778;BME280;66966;-34.746;138.604;2023-04-06T04:13:15;100380.97;;;26.12;32.79
77778;BME280;66966;-34.746;138.604;2023-04-06T04:15:40;100379.22;;;26.15;32.66
77778;BME280;66966;-34.746;138.604;2023-04-06T04:18:06;100376.22;;;26.21;32.14
77778;BME280;66966;-34.746;138.604;2023-04-06T04:20:31;100367.16;;;26.61;32.14
77778;BME280;66966;-34.746;138.604;2023-04-06T04:22:56;100361.56;;;26.74;31.20
77778;BME280;66966;-34.746;138.604;2023-04-06T04:25:22;100353.68;;;26.93;30.88
77778;BME280;66966;-34.746;138.604;2023-04-06T04:27:47;100346.33;;;27.09;30.72
77778;BME280;66966;-34.746;138.604;2023-04-06T04:30:13;100342.36;;;27.35;30.93
77778;BME280;66966;-34.746;138.604;2023-04-06T04:32:37;100338.70;;;27.63;30.26
77778;BME280;66966;-34.746;138.604;2023-04-06T04:35:03;100335.69;;;27.33;30.07
77778;BME280;66966;-34.746;138.604;2023-04-06T04:37:27;100335.74;;;27.62;30.34
77778;BME280;66966;-34.746;138.604;2023-04-06T04:39:53;100331.49;;;27.29;30.36
77778;BME280;66966;-34.746;138.604;2023-04-06T04:42:18;100324.87;;;27.11;30.21
77778;BME280;66966;-34.746;138.604;2023-04-06T04:44:43;100323.77;;;27.24;30.57
77778;BME280;66966;-34.746;138.604;2023-04-06T04:47:08;100322.94;;;26.61;29.78
77778;BME280;66966;-34.746;138.604;2023-04-06T04:49:34;100314.52;;;27.17;30.49
77778;BME280;66966;-34.746;138.604;2023-04-06T04:51:59;100307.72;;;27.19;30.19
77778;BME280;66966;-34.746;138.604;2023-04-06T04:54:24;100309.46;;;27.50;29.46
77778;BME280;66966;-34.746;138.604;2023-04-06T04:56:49;100303.06;;;27.34;29.67
77778;BME280;66966;-34.746;138.604;2023-04-06T04:59:14;100303.72;;;27.30;28.94
77778;BME280;66966;-34.746;138.604;2023-04-06T05:01:40;100299.38;;;27.20;29.08
77778;BME280;66966;-34.746;138.604;2023-04-06T05:04:05;100296.33;;;27.25;28.91
77778;BME280;66966;-34.746;138.604;2023-04-06T05:06:30;100296.50;;;27.18;29.27
77778;BME280;66966;-34.746;138.604;2023-04-06T05:08:55;100297.27;;;27.06;29.41
77778;BME280;66966;-34.746;138.604;2023-04-06T05:11:20;100290.67;;;26.90;28.85
77778;BME280;66966;-34.746;138.604;2023-04-06T05:13:46;100288.63;;;26.95;29.12
77778;BME280;66966;-34.746;138.604;2023-04-06T05:16:11;100290.55;;;26.85;29.23
77778;BME280;66966;-34.746;138.604;2023-04-06T05:18:36;100297.08;;;26.81;29.42
77778;BME280;66966;-34.746;138.604;2023-04-06T05:21:01;100297.46;;;26.69;29.84
77778;BME280;66966;-34.746;138.604;2023-04-06T05:23:27;100299.96;;;26.63;30.20
77778;BME280;66966;-34.746;138.604;2023-04-06T05:25:52;100298.12;;;26.76;30.44
77778;BME280;66966;-34.746;138.604;2023-04-06T05:28:17;100292.37;;;26.60;30.60
77778;BME280;66966;-34.746;138.604;2023-04-06T05:30:43;100288.86;;;26.68;30.58
77778;BME280;66966;-34.746;138.604;2023-04-06T05:33:08;100289.47;;;26.22;30.37
77778;BME280;66966;-34.746;138.604;2023-04-06T05:35:33;100285.05;;;26.35;30.21
77778;BME280;66966;-34.746;138.604;2023-04-06T05:37:59;100287.13;;;26.60;30.19
77778;BME280;66966;-34.746;138.604;2023-04-06T05:40:24;100289.42;;;26.37;30.17
77778;BME280;66966;-34.746;138.604;2023-04-06T05:42:49;100293.74;;;26.05;30.40
77778;BME280;66966;-34.746;138.604;2023-04-06T05:45:14;100295.89;;;25.86;30.67
77778;BME280;66966;-34.746;138.604;2023-04-06T05:47:39;100297.62;;;25.89;31.29
77778;BME280;66966;-34.746;138.604;2023-04-06T05:50:05;100289.74;;;25.76;31.44
77778;BME280;66966;-34.746;138.604;2023-04-06T05:52:30;100286.27;;;25.82;31.56
77778;BME280;66966;-34.746;138.604;2023-04-06T05:54:55;100285.85;;;25.56;31.71
77778;BME280;66966;-34.746;138.604;2023-04-06T05:57:20;100287.19;;;25.33;31.92
77778;BME280;66966;-34.746;138.604;2023-04-06T05:59:46;100280.74;;;25.63;31.90
77778;BME280;66966;-34.746;138.604;2023-04-06T06:02:11;100280.45;;;25.44;31.87
77778;BME280;66966;-34.746;138.604;2023-04-06T06:04:36;100283.15;;;25.58;32.12
77778;BME280;66966;-34.746;138.604;2023-04-06T06:07:02;100283.60;;;25.22;32.45
77778;BME280;66966;-34.746;138.604;2023-04-06T06:09:27;100287.28;;;25.76;32.35
77778;BME280;66966;-34.746;138.604;2023-04-06T06:11:52;100284.60;;;25.55;32.60
77778;BME280;66966;-34.746;138.604;2023-04-06T06:14:17;100275.31;;;25.45;32.40
77778;BME280;66966;-34.746;138.604;2023-04-06T06:16:43;100274.10;;;25.46;32.24
77778;BME280;66966;-34.746;138.604;2023-04-06T06:19:08;100269.62;;;25.22;31.80
77778;BME280;66966;-34.746;138.604;2023-04-06T06:21:33;100271.88;;;25.28;31.42
77778;BME280;66966;-34.746;138.604;2023-04-06T06:23:58;100270.32;;;25.40;31.56
77778;BME280;66966;-34.746;138.604;2023-04-06T06:26:24;100276.05;;;25.75;31.51
77778;BME280;66966;-34.746;138.604;2023-04-06T06:28:49;100277.90;;;25.29;31.55
77778;BME280;66966;-34.746;138.604;2023-04-06T06:31:15;100279.18;;;25.48;31.57
77778;BME280;66966;-34.746;138.604;2023-04-06T06:33:39;100284.37;;;25.34;31.71
77778;BME280;66966;-34.746;138.604;2023-04-06T06:36:05;100289.87;;;25.57;32.03
77778;BME280;66966;-34.746;138.604;2023-04-06T06:38:30;100285.63;;;25.29;32.55
77778;BME280;66966;-34.746;138.604;2023-04-06T06:40:55;100286.12;;;24.98;33.12
77778;BME280;66966;-34.746;138.604;2023-04-06T06:43:21;100286.18;;;24.44;33.30
77778;BME280;66966;-34.746;138.604;2023-04-06T06:45:46;100280.73;;;24.49;33.65
77778;BME280;66966;-34.746;138.604;2023-04-06T06:48:11;100275.75;;;24.71;34.94
77778;BME280;66966;-34.746;138.604;2023-04-06T06:50:37;100273.18;;;24.99;35.51
77778;BME280;66966;-34.746;138.604;2023-04-06T06:53:02;100274.40;;;25.07;35.23
77778;BME280;66966;-34.746;138.604;2023-04-06T06:55:27;100267.80;;;24.88;35.10
77778;BME280;66966;-34.746;138.604;2023-04-06T06:57:52;100267.10;;;25.15;34.62
77778;BME280;66966;-34.746;138.604;2023-04-06T07:00:18;100269.40;;;25.30;35.05
77778;BME280;66966;-34.746;138.604;2023-04-06T07:02:43;100267.64;;;24.91;35.01
77778;BME280;66966;-34.746;138.604;2023-04-06T07:05:08;100265.18;;;25.22;35.12
77778;BME280;66966;-34.746;138.604;2023-04-06T07:07:34;100258.22;;;25.09;35.60
77778;BME280;66966;-34.746;138.604;2023-04-06T07:09:59;100254.61;;;25.50;34.65
77778;BME280;66966;-34.746;138.604;2023-04-06T07:12:24;100254.50;;;25.41;35.03
77778;BME280;66966;-34.746;138.604;2023-04-06T07:14:49;100255.49;;;25.46;33.96
77778;BME280;66966;-34.746;138.604;2023-04-06T07:17:14;100253.71;;;25.83;31.91
77778;BME280;66966;-34.746;138.604;2023-04-06T07:19:40;100252.00;;;25.79;31.54
77778;BME280;66966;-34.746;138.604;2023-04-06T07:22:05;100247.95;;;25.66;30.74
77778;BME280;66966;-34.746;138.604;2023-04-06T07:24:30;100246.93;;;25.89;29.48
77778;BME280;66966;-34.746;138.604;2023-04-06T07:26:56;100249.75;;;25.98;29.42
77778;BME280;66966;-34.746;138.604;2023-04-06T07:29:21;100247.03;;;25.76;29.76
77778;BME280;66966;-34.746;138.604;2023-04-06T07:31:46;100244.98;;;25.95;29.22
77778;BME280;66966;-34.746;138.604;2023-04-06T07:34:16;100246.45;;;26.09;27.59
77778;BME280;66966;-34.746;138.604;2023-04-06T07:36:37;100248.64;;;25.84;26.67
77778;BME280;66966;-34.746;138.604;2023-04-06T07:39:02;100250.39;;;25.77;27.43
77778;BME280;66966;-34.746;138.604;2023-04-06T07:41:27;100248.16;;;25.80;27.69
77778;BME280;66966;-34.746;138.604;2023-04-06T07:43:53;100254.36;;;25.67;28.47
77778;BME280;66966;-34.746;138.604;2023-04-06T07:46:18;100255.24;;;25.10;29.64
77778;BME280;66966;-34.746;138.604;2023-04-06T07:48:43;100251.62;;;25.31;30.41
77778;BME280;66966;-34.746;138.604;2023-04-06T07:51:08;100252.26;;;24.81;31.03
77778;BME280;66966;-34.746;138.604;2023-04-06T07:53:33;100249.85;;;25.28;31.47
77778;BME280;66966;-34.746;138.604;2023-04-06T07:56:00;100246.87;;;25.18;31.78
77778;BME280;66966;-34.746;138.604;2023-04-06T07:58:24;100248.86;;;25.23;32.00
77778;BME280;66966;-34.746;138.604;2023-04-06T08:00:49;100252.95;;;25.17;31.99
77778;BME280;66966;-34.746;138.604;2023-04-06T08:03:15;100260.63;;;25.20;31.87
77778;BME280;66966;-34.746;138.604;2023-04-06T08:05:40;100258.54;;;25.03;31.87
77778;BME280;66966;-34.746;138.604;2023-04-06T08:08:05;100256.31;;;24.97;31.98
77778;BME280;66966;-34.746;138.604;2023-04-06T08:10:30;100254.91;;;24.93;31.56
77778;BME280;66966;-34.746;138.604;2023-04-06T08:12:56;100251.13;;;24.62;30.44
77778;BME280;66966;-34.746;138.604;2023-04-06T08:15:21;100247.15;;;24.57;30.34
77778;BME280;66966;-34.746;138.604;2023-04-06T08:17:47;100251.08;;;24.24;30.45
77778;BME280;66966;-34.746;138.604;2023-04-06T08:20:12;100254.30;;;24.45;30.43
77778;BME280;66966;-34.746;138.604;2023-04-06T08:22:37;100256.98;;;24.37;30.78
77778;BME280;66966;-34.746;138.604;2023-04-06T08:25:02;100258.47;;;24.38;30.92
77778;BME280;66966;-34.746;138.604;2023-04-06T08:27:27;100257.64;;;24.33;31.19
77778;BME280;66966;-34.746;138.604;2023-04-06T08:29:53;100260.73;;;24.06;31.12
77778;BME280;66966;-34.746;138.604;2023-04-06T08:32:18;100261.48;;;24.70;31.11
77778;BME280;66966;-34.746;138.604;2023-04-06T08:34:43;100259.15;;;24.44;31.59
77778;BME280;66966;-34.746;138.604;2023-04-06T08:37:09;100262.78;;;24.24;32.16
77778;BME280;66966;-34.746;138.604;2023-04-06T08:39:34;100266.20;;;24.06;32.66
77778;BME280;66966;-34.746;138.604;2023-04-06T08:42:00;100278.28;;;24.17;33.33
77778;BME280;66966;-34.746;138.604;2023-04-06T08:44:25;100281.42;;;23.82;33.53
77778;BME280;66966;-34.746;138.604;2023-04-06T08:46:50;100286.82;;;23.89;33.83
77778;BME280;66966;-34.746;138.604;2023-04-06T08:49:16;100287.56;;;23.79;34.04
77778;BME280;66966;-34.746;138.604;2023-04-06T08:51:42;100290.74;;;23.99;34.23
77778;BME280;66966;-34.746;138.604;2023-04-06T08:54:06;100298.09;;;23.83;34.45
77778;BME280;66966;-34.746;138.604;2023-04-06T08:56:32;100305.16;;;23.64;34.71
77778;BME280;66966;-34.746;138.604;2023-04-06T08:58:57;100318.35;;;23.48;35.02
77778;BME280;66966;-34.746;138.604;2023-04-06T09:01:25;100337.70;;;23.51;35.64
77778;BME280;66966;-34.746;138.604;2023-04-06T09:03:49;100339.06;;;23.28;35.97
77778;BME280;66966;-34.746;138.604;2023-04-06T09:06:14;100336.51;;;23.16;36.35
77778;BME280;66966;-34.746;138.604;2023-04-06T09:08:40;100336.41;;;23.55;35.35
77778;BME280;66966;-34.746;138.604;2023-04-06T09:11:04;100335.30;;;22.72;33.97
77778;BME280;66966;-34.746;138.604;2023-04-06T09:13:29;100329.67;;;22.66;34.13
77778;BME280;66966;-34.746;138.604;2023-04-06T09:16:02;100317.50;;;22.52;33.63
77778;BME280;66966;-34.746;138.604;2023-04-06T09:18:28;100305.45;;;22.53;33.10
77778;BME280;66966;-34.746;138.604;2023-04-06T09:20:45;100298.97;;;22.22;33.06
77778;BME280;66966;-34.746;138.604;2023-04-06T09:23:19;100322.04;;;22.05;33.37
77778;BME280;66966;-34.746;138.604;2023-04-06T09:25:36;100324.74;;;22.08;33.65
77778;BME280;66966;-34.746;138.604;2023-04-06T09:28:02;100343.12;;;22.22;33.62
77778;BME280;66966;-34.746;138.604;2023-04-06T09:30:26;100350.12;;;21.97;33.73
77778;BME280;66966;-34.746;138.604;2023-04-06T09:32:54;100353.79;;;21.90;34.25
77778;BME280;66966;-34.746;138.604;2023-04-06T09:35:18;100357.98;;;22.03;34.91
77778;BME280;66966;-34.746;138.604;2023-04-06T09:37:43;100370.51;;;22.04;35.20
77778;BME280;66966;-34.746;138.604;2023-04-06T09:40:09;100371.35;;;21.64;35.67
77778;BME280;66966;-34.746;138.604;2023-04-06T09:42:34;100368.92;;;21.73;36.21
77778;BME280;66966;-34.746;138.604;2023-04-06T09:44:59;100364.90;;;21.22;36.73
77778;BME280;66966;-34.746;138.604;2023-04-06T09:47:25;100368.42;;;21.86;37.09
77778;BME280;66966;-34.746;138.604;2023-04-06T09:49:53;100382.23;;;21.17;37.39
77778;BME280;66966;-34.746;138.604;2023-04-06T09:52:15;100385.07;;;21.16;37.77
77778;BME280;66966;-34.746;138.604;2023-04-06T09:54:41;100390.09;;;20.84;38.02
77778;BME280;66966;-34.746;138.604;2023-04-06T09:57:13;100393.47;;;20.86;38.15
77778;BME280;66966;-34.746;138.604;2023-04-06T09:59:45;100409.73;;;20.85;38.72
77778;BME280;66966;-34.746;138.604;2023-04-06T10:01:59;100431.19;;;20.74;38.48
77778;BME280;66966;-34.746;138.604;2023-04-06T10:04:30;100445.52;;;20.55;38.12
77778;BME280;66966;-34.746;138.604;2023-04-06T10:06:48;100446.99;;;20.53;37.91
77778;BME280;66966;-34.746;138.604;2023-04-06T10:09:14;100455.07;;;20.27;37.92
77778;BME280;66966;-34.746;138.604;2023-04-06T10:11:39;100459.76;;;20.04;38.41
77778;BME280;66966;-34.746;138.604;2023-04-06T10:14:04;100464.97;;;19.99;38.50
77778;BME280;66966;-34.746;138.604;2023-04-06T10:16:31;100453.44;;;19.86;38.60
77778;BME280;66966;-34.746;138.604;2023-04-06T10:19:00;100459.52;;;20.07;38.36
77778;BME280;66966;-34.746;138.604;2023-04-06T10:21:23;100453.34;;;19.89;38.42
77778;BME280;66966;-34.746;138.604;2023-04-06T10:23:51;100461.06;;;19.89;38.14
77778;BME280;66966;-34.746;138.604;2023-04-06T10:26:15;100485.15;;;19.58;38.92
77778;BME280;66966;-34.746;138.604;2023-04-06T10:28:37;100495.66;;;19.49;38.87
77778;BME280;66966;-34.746;138.604;2023-04-06T10:31:06;100515.31;;;19.39;38.89
77778;BME280;66966;-34.746;138.604;2023-04-06T10:33:29;100523.28;;;20.02;38.93
77778;BME280;66966;-34.746;138.604;2023-04-06T10:35:53;100531.93;;;19.95;38.93
77778;BME280;66966;-34.746;138.604;2023-04-06T10:38:20;100546.27;;;19.46;39.26
77778;BME280;66966;-34.746;138.604;2023-04-06T10:40:44;100538.62;;;19.49;39.33
77778;BME280;66966;-34.746;138.604;2023-04-06T10:43:12;100529.68;;;19.44;39.43
77778;BME280;66966;-34.746;138.604;2023-04-06T10:45:37;100522.74;;;19.42;39.76
77778;BME280;66966;-34.746;138.604;2023-04-06T10:48:01;100520.79;;;19.94;39.89
77778;BME280;66966;-34.746;138.604;2023-04-06T10:50:26;100520.60;;;19.68;40.45
77778;BME280;66966;-34.746;138.604;2023-04-06T10:52:59;100517.20;;;19.99;40.39
77778;BME280;66966;-34.746;138.604;2023-04-06T10:55:17;100520.25;;;19.47;40.46
77778;BME280;66966;-34.746;138.604;2023-04-06T10:57:43;100528.33;;;19.40;40.51
77778;BME280;66966;-34.746;138.604;2023-04-06T11:00:11;100541.06;;;19.26;40.88
77778;BME280;66966;-34.746;138.604;2023-04-06T11:02:34;100542.26;;;19.28;41.12
77778;BME280;66966;-34.746;138.604;2023-04-06T11:05:00;100552.73;;;19.62;41.28
77778;BME280;66966;-34.746;138.604;2023-04-06T11:07:26;100565.77;;;19.40;41.45
77778;BME280;66966;-34.746;138.604;2023-04-06T11:09:51;100575.84;;;19.49;41.55
77778;BME280;66966;-34.746;138.604;2023-04-06T11:12:22;100580.95;;;19.43;41.67
77778;BME280;66966;-34.746;138.604;2023-04-06T11:14:41;100588.77;;;19.49;41.62
77778;BME280;66966;-34.746;138.604;2023-04-06T11:17:07;100595.89;;;19.36;41.42
77778;BME280;66966;-34.746;138.604;2023-04-06T11:19:33;100601.47;;;19.75;41.50
77778;BME280;66966;-34.746;138.604;2023-04-06T11:22:06;100607.59;;;19.68;41.69
77778;BME280;66966;-34.746;138.604;2023-04-06T11:24:24;100609.40;;;19.14;42.01
77778;BME280;66966;-34.746;138.604;2023-04-06T11:26:50;100607.26;;;19.67;42.25
77778;BME280;66966;-34.746;138.604;2023-04-06T11:29:15;100615.62;;;19.48;42.36
77778;BME280;66966;-34.746;138.604;2023-04-06T11:31:41;100617.89;;;19.63;42.24
77778;BME280;66966;-34.746;138.604;2023-04-06T11:34:09;100608.72;;;19.61;42.07
77778;BME280;66966;-34.746;138.604;2023-04-06T11:36:30;100579.75;;;19.76;42.32
77778;BME280;66966;-34.746;138.604;2023-04-06T11:38:57;100558.70;;;19.60;42.34
77778;BME280;66966;-34.746;138.604;2023-04-06T11:41:24;100540.75;;;19.93;42.35
77778;BME280;66966;-34.746;138.604;2023-04-06T11:43:48;100509.14;;;20.00;42.28
77778;BME280;66966;-34.746;138.604;2023-04-06T11:46:18;100484.63;;;20.03;42.35
77778;BME280;66966;-34.746;138.604;2023-04-06T11:48:44;100445.48;;;20.01;42.41
77778;BME280;66966;-34.746;138.604;2023-04-06T11:51:03;100438.63;;;19.96;42.22
77778;BME280;66966;-34.746;138.604;2023-04-06T11:53:29;100432.42;;;19.94;42.09
77778;BME280;66966;-34.746;138.604;2023-04-06T11:55:54;100435.23;;;19.83;42.31
77778;BME280;66966;-34.746;138.604;2023-04-06T11:58:20;100429.25;;;19.54;42.32
77778;BME280;66966;-34.746;138.604;2023-04-06T12:00:45;100417.40;;;19.57;42.28
77778;BME280;66966;-34.746;138.604;2023-04-06T12:03:10;100411.21;;;19.80;42.26
77778;BME280;66966;-34.746;138.604;2023-04-06T12:05:36;100409.72;;;19.58;42.12
77778;BME280;66966;-34.746;138.604;2023-04-06T12:08:01;100403.59;;;19.81;42.08
77778;BME280;66966;-34.746;138.604;2023-04-06T12:10:27;100404.44;;;19.79;42.14